Time;durP1;ratioP1;P1;durP2;ratioP2;P2;SDS_P1;SDS_P2;PMS_P1;PMS_P2;Temp;Humidity;BMP_temperature;BMP_pressure;BME280_temperature;BME280_humidity;BME280_pressure;Samples;Min_cycle;Max_cycle;Signal;HPM_P1;HPM_P2
2021/08/09 00:01:28;;;;;;;30.85;19.37;;;;;;;20.54;83.69;100885.01;1852483;77;21074;-62
2021/08/09 00:03:57;;;;;;;30.00;18.45;;;;;;;20.54;83.78;100875.64;1852511;77;21137;-61
2021/08/09 00:06:26;;;;;;;34.85;18.90;;;;;;;20.52;83.77;100873.09;1852495;77;21113;-61
2021/08/09 00:08:54;;;;;;;32.45;20.85;;;;;;;20.52;83.81;100868.23;1852465;77;21045;-61
2021/08/09 00:11:23;;;;;;;33.35;19.37;;;;;;;20.51;83.93;100872.73;1852533;77;21018;-61
2021/08/09 00:13:52;;;;;;;32.95;19.57;;;;;;;20.49;84.17;100876.02;1852469;77;21172;-61
2021/08/09 00:16:21;;;;;;;27.82;17.92;;;;;;;20.51;84.17;100876.75;1852489;77;21188;-60
2021/08/09 00:18:50;;;;;;;32.73;19.50;;;;;;;20.50;84.12;100873.70;1852466;77;21673;-60
2021/08/09 00:21:21;;;;;;;31.82;20.37;;;;;;;20.52;84.17;100872.24;1852712;77;21041;-61
2021/08/09 00:23:50;;;;;;;35.25;19.25;;;;;;;20.52;84.20;100873.09;1852606;77;21093;-61
2021/08/09 00:26:21;;;;;;;33.35;20.23;;;;;;;20.52;84.22;100877.59;1852614;77;21122;-61
2021/08/09 00:28:50;;;;;;;33.40;20.02;;;;;;;20.52;84.20;100873.58;1852545;77;21447;-61
2021/08/09 00:31:19;;;;;;;34.40;22.67;;;;;;;20.51;84.19;100877.22;1852499;77;21180;-61
2021/08/09 00:33:47;;;;;;;37.48;22.15;;;;;;;20.51;84.38;100879.89;1852452;77;21086;-61
2021/08/09 00:36:16;;;;;;;33.38;19.45;;;;;;;20.49;84.66;100881.37;1852451;77;21102;-61
2021/08/09 00:38:47;;;;;;;35.83;19.77;;;;;;;20.47;84.63;100877.09;1852460;77;21147;-61
2021/08/09 00:41:16;;;;;;;34.70;19.35;;;;;;;20.47;84.64;100883.78;1852536;77;21303;-61
2021/08/09 00:43:45;;;;;;;36.38;18.27;;;;;;;20.46;84.72;100879.42;1838778;77;21558;-61
2021/08/09 00:46:15;;;;;;;38.65;19.73;;;;;;;20.46;84.60;100878.93;1834809;78;21559;-61
2021/08/09 00:48:46;;;;;;;42.45;18.80;;;;;;;20.44;84.92;100876.86;1834860;78;21073;-60
2021/08/09 00:51:15;;;;;;;44.40;24.45;;;;;;;20.42;84.95;100878.31;1835230;78;21141;-61
2021/08/09 00:53:49;;;;;;;59.15;39.65;;;;;;;20.42;84.79;100867.62;1834858;78;21607;-61
2021/08/09 00:56:19;;;;;;;91.40;66.33;;;;;;;20.41;84.65;100871.25;1835104;78;21050;-61
2021/08/09 00:58:49;;;;;;;147.20;111.83;;;;;;;20.38;84.80;100866.16;1835211;78;21562;-61
2021/08/09 01:01:17;;;;;;;104.05;70.67;;;;;;;20.37;85.09;100859.59;1835099;78;21050;-61
2021/08/09 01:03:48;;;;;;;75.78;47.62;;;;;;;20.35;84.98;100853.02;1834603;78;21072;-61
2021/08/09 01:06:18;;;;;;;79.40;52.23;;;;;;;20.34;84.92;100859.33;1835074;78;21513;-61
2021/08/09 01:09:06;;;;;;;131.15;113.28;;;;;;;20.34;84.87;100858.48;1834931;78;21078;-61
2021/08/09 01:11:41;;;;;;;111.28;81.35;;;;;;;20.32;85.00;100858.60;1835049;78;21173;-61
2021/08/09 01:14:39;;;;;;;126.40;100.02;;;;;;;20.28;85.65;100859.82;1834469;78;21116;-60
2021/08/09 01:17:10;;;;;;;108.95;84.85;;;;;;;20.25;85.94;100854.23;1835118;77;21527;-61
2021/08/09 01:19:43;;;;;;;61.70;39.77;;;;;;;20.23;86.15;100853.97;1835363;78;21351;-61
2021/08/09 01:22:28;;;;;;;83.12;59.33;;;;;;;20.22;86.23;100856.30;1834442;78;21070;-60
2021/08/09 01:25:18;;;;;;;92.67;69.00;;;;;;;20.20;86.24;100851.56;1834679;78;21541;-61
2021/08/09 01:27:51;;;;;;;77.25;57.62;;;;;;;20.17;86.24;100844.61;1834914;77;21160;-61
2021/08/09 01:30:22;;;;;;;86.78;58.55;;;;;;;20.17;86.33;100843.77;1835105;78;21321;-61
2021/08/09 01:32:53;;;;;;;70.52;51.10;;;;;;;20.16;86.47;100836.70;1835215;78;21073;-61
2021/08/09 01:35:25;;;;;;;57.90;41.05;;;;;;;20.14;86.61;100830.63;1834993;78;21050;-62
2021/08/09 01:37:59;;;;;;;52.38;35.63;;;;;;;20.14;86.48;100845.33;1835339;77;21511;-61
2021/08/09 01:40:31;;;;;;;56.08;36.35;;;;;;;20.11;86.45;100839.75;1834580;76;21143;-61
2021/08/09 01:43:01;;;;;;;45.63;31.23;;;;;;;20.11;86.29;100842.42;1835072;77;21156;-61
2021/08/09 01:45:31;;;;;;;36.13;23.00;;;;;;;20.11;86.31;100841.58;1835015;78;21525;-61
2021/08/09 01:48:01;;;;;;;30.02;19.52;;;;;;;20.09;86.30;100838.18;1834939;78;21203;-61
2021/08/09 01:50:32;;;;;;;37.48;22.58;;;;;;;20.08;86.22;100837.30;1834361;78;21097;-61
2021/08/09 01:53:02;;;;;;;31.75;18.77;;;;;;;20.08;86.04;100833.80;1835113;78;21191;-61
2021/08/09 01:55:31;;;;;;;36.93;22.07;;;;;;;20.05;85.93;100831.73;1835225;78;21521;-61
2021/08/09 01:58:01;;;;;;;39.58;22.85;;;;;;;20.03;85.87;100832.83;1835194;78;21153;-61
2021/08/09 02:00:31;;;;;;;44.35;24.50;;;;;;;20.02;85.90;100833.78;1835024;78;21165;-61
2021/08/09 02:03:00;;;;;;;45.43;27.20;;;;;;;20.01;85.87;100828.94;1835265;78;21058;-61
2021/08/09 02:05:31;;;;;;;35.10;23.00;;;;;;;19.99;85.88;100836.22;1835124;78;21054;-61
2021/08/09 02:08:01;;;;;;;44.65;24.82;;;;;;;19.98;85.92;100838.52;1834827;78;21389;-61
2021/08/09 02:10:31;;;;;;;38.40;20.60;;;;;;;19.96;86.05;100841.80;1835069;78;21120;-61
2021/08/09 02:13:10;;;;;;;31.00;17.67;;;;;;;19.95;86.03;100845.42;1834691;78;21160;-61
2021/08/09 02:16:01;;;;;;;28.77;15.85;;;;;;;19.97;86.04;100851.50;1835119;77;21078;-61
2021/08/09 02:18:34;;;;;;;31.07;18.02;;;;;;;19.99;86.03;100853.59;1835263;77;21117;-61
2021/08/09 02:21:09;;;;;;;37.53;19.25;;;;;;;20.01;85.95;100856.12;1834855;77;21140;-62
2021/08/09 02:23:56;;;;;;;30.97;18.23;;;;;;;20.00;85.88;100863.30;1835030;78;21132;-61
2021/08/09 02:26:30;;;;;;;30.65;18.55;;;;;;;20.00;85.81;100875.33;1835060;77;21042;-61
2021/08/09 02:29:05;;;;;;;30.97;17.25;;;;;;;20.00;85.76;100879.83;1835141;78;21070;-61
2021/08/09 02:31:37;;;;;;;29.00;16.25;;;;;;;20.00;85.84;100891.36;1833716;78;21066;-62
2021/08/09 02:34:07;;;;;;;25.68;15.13;;;;;;;20.01;85.91;100895.75;1835150;77;21608;-61
2021/08/09 02:36:36;;;;;;;24.23;15.90;;;;;;;20.00;85.89;100888.69;1835168;78;21062;-61
2021/08/09 02:39:06;;;;;;;27.67;16.45;;;;;;;19.97;85.84;100895.59;1835057;78;21554;-61
2021/08/09 02:41:36;;;;;;;22.98;14.47;;;;;;;19.97;85.77;100901.42;1834999;78;21074;-61
2021/08/09 02:44:07;;;;;;;26.23;15.70;;;;;;;19.95;85.75;100900.70;1834915;78;21525;-62
2021/08/09 02:46:36;;;;;;;26.12;15.88;;;;;;;19.93;85.75;100902.64;1834972;78;21207;-61
2021/08/09 02:49:05;;;;;;;25.60;15.85;;;;;;;19.92;85.72;100911.15;1835080;78;21166;-61
2021/08/09 02:51:35;;;;;;;26.52;15.80;;;;;;;19.92;85.71;100915.16;1835136;77;21497;-61
2021/08/09 02:54:04;;;;;;;28.27;17.32;;;;;;;19.91;85.85;100917.45;1835035;78;21082;-61
2021/08/09 02:56:35;;;;;;;31.93;13.88;;;;;;;19.92;86.05;100921.84;1835052;78;21516;-61
2021/08/09 02:59:05;;;;;;;24.32;16.30;;;;;;;19.94;86.11;100926.58;1835209;78;21058;-61
2021/08/09 03:01:35;;;;;;;26.10;17.92;;;;;;;19.98;86.21;100922.70;1835167;78;21022;-61
2021/08/09 03:04:06;;;;;;;35.70;17.30;;;;;;;20.02;86.20;100922.83;1835170;78;21050;-61
2021/08/09 03:06:37;;;;;;;25.23;16.65;;;;;;;20.08;86.31;100932.69;1835142;77;21043;-61
2021/08/09 03:09:07;;;;;;;29.67;17.77;;;;;;;20.13;86.25;100941.22;1834897;78;21050;-62
2021/08/09 03:11:37;;;;;;;33.33;18.40;;;;;;;20.17;86.16;100942.68;1835129;78;21054;-61
2021/08/09 03:14:05;;;;;;;27.58;19.32;;;;;;;20.25;86.18;100956.30;1835137;78;21505;-61
2021/08/09 03:16:37;;;;;;;28.50;17.82;;;;;;;20.29;86.08;100959.13;1835243;78;21141;-61
2021/08/09 03:19:05;;;;;;;30.55;16.70;;;;;;;20.34;86.03;100959.61;1835154;78;21058;-61
2021/08/09 03:21:34;;;;;;;32.17;19.42;;;;;;;20.40;85.98;100954.30;1834950;78;21056;-62
2021/08/09 03:24:03;;;;;;;27.80;16.05;;;;;;;20.44;85.94;100948.58;1834985;78;21129;-61
2021/08/09 03:26:32;;;;;;;28.02;15.28;;;;;;;20.49;85.81;100937.55;1834976;78;21580;-61
2021/08/09 03:29:01;;;;;;;24.20;14.93;;;;;;;20.56;85.64;100935.22;1835054;78;21058;-61
2021/08/09 03:31:30;;;;;;;23.62;14.40;;;;;;;20.63;85.45;100941.83;1835042;78;21148;-61
2021/08/09 03:33:59;;;;;;;26.12;15.75;;;;;;;20.68;85.24;100954.37;1835037;78;21074;-61
2021/08/09 03:36:28;;;;;;;22.40;14.53;;;;;;;20.76;85.06;100960.45;1834829;78;21505;-61
2021/08/09 03:38:57;;;;;;;18.80;13.53;;;;;;;20.82;84.87;100965.31;1835044;78;21086;-61
2021/08/09 03:41:26;;;;;;;21.65;14.47;;;;;;;20.90;84.72;100964.73;1835015;78;21132;-61
2021/08/09 03:43:54;;;;;;;24.02;13.70;;;;;;;20.95;84.54;100957.16;1835005;78;21132;-61
2021/08/09 03:46:23;;;;;;;27.70;15.65;;;;;;;21.03;84.37;100964.11;1834953;78;21066;-61
2021/08/09 03:48:52;;;;;;;24.63;12.98;;;;;;;21.10;84.17;100968.01;1834858;78;21120;-61
2021/08/09 03:51:21;;;;;;;25.40;15.18;;;;;;;21.19;83.96;100971.29;1835086;78;21026;-61
2021/08/09 03:53:50;;;;;;;23.45;15.60;;;;;;;21.31;83.82;100966.76;1834988;78;21078;-61
2021/08/09 03:56:18;;;;;;;26.60;15.25;;;;;;;21.46;83.68;100961.17;1835012;78;21070;-61
2021/08/09 03:58:47;;;;;;;27.32;17.42;;;;;;;21.67;83.56;100966.59;1835011;78;21163;-61
2021/08/09 04:01:16;;;;;;;20.12;14.33;;;;;;;21.87;83.21;100964.44;1834966;78;21042;-62
2021/08/09 04:03:45;;;;;;;24.47;13.60;;;;;;;21.98;82.62;100959.53;1835083;78;21070;-61
2021/08/09 04:06:16;;;;;;;28.67;16.80;;;;;;;22.13;82.28;100968.98;1835148;78;21154;-61
2021/08/09 04:08:48;;;;;;;27.62;15.15;;;;;;;22.38;81.51;100972.79;1835027;78;21144;-61
2021/08/09 04:11:17;;;;;;;21.23;12.70;;;;;;;22.62;80.99;100973.85;1835252;77;21136;-61
2021/08/09 04:13:46;;;;;;;23.07;13.05;;;;;;;22.92;80.41;100978.38;1835120;78;21070;-61
2021/08/09 04:16:15;;;;;;;20.20;12.18;;;;;;;23.16;79.57;100979.92;1835139;78;21054;-61
2021/08/09 04:18:44;;;;;;;17.67;12.28;;;;;;;23.28;79.24;100982.87;1835141;78;21050;-61
2021/08/09 04:21:13;;;;;;;19.67;12.07;;;;;;;23.47;78.81;100972.16;1835096;78;21077;-61
2021/08/09 04:23:42;;;;;;;18.75;10.68;;;;;;;23.62;78.20;100970.42;1835061;78;21127;-60
2021/08/09 04:26:10;;;;;;;15.83;10.82;;;;;;;23.61;77.51;100963.34;1835053;78;21050;-61
2021/08/09 04:28:39;;;;;;;17.75;10.60;;;;;;;23.54;77.32;100964.41;1835128;78;21549;-61
2021/08/09 04:31:08;;;;;;;16.95;11.60;;;;;;;23.47;77.19;100965.44;1835119;78;21541;-61
2021/08/09 04:33:43;;;;;;;18.55;11.22;;;;;;;23.43;77.16;100961.84;1835088;78;21172;-61
2021/08/09 04:36:13;;;;;;;18.90;11.00;;;;;;;23.38;77.04;100968.95;1833708;78;21572;-61
2021/08/09 04:38:43;;;;;;;17.15;11.53;;;;;;;23.30;77.07;100973.67;1835026;78;21466;-61
2021/08/09 04:41:13;;;;;;;18.02;12.25;;;;;;;23.25;77.19;100971.89;1835250;78;21805;-61
2021/08/09 04:43:43;;;;;;;18.10;11.60;;;;;;;23.24;77.35;100976.05;1835096;78;21533;-61
2021/08/09 04:46:14;;;;;;;16.95;10.03;;;;;;;23.25;77.48;100973.73;1835050;78;21212;-60
2021/08/09 04:48:43;;;;;;;21.17;12.58;;;;;;;23.24;77.37;100969.33;1835059;78;21603;-60
2021/08/09 04:51:13;;;;;;;19.73;12.05;;;;;;;23.24;77.19;100980.08;1835013;78;21121;-62
2021/08/09 04:53:44;;;;;;;18.27;11.08;;;;;;;23.28;77.17;100981.53;1834867;78;21089;-60
2021/08/09 04:56:13;;;;;;;20.95;12.43;;;;;;;23.33;77.17;100976.57;1835062;78;21059;-60
2021/08/09 04:58:42;;;;;;;14.65;10.25;;;;;;;23.36;77.10;100976.31;1835032;78;21584;-60
2021/08/09 05:01:11;;;;;;;19.30;10.88;;;;;;;23.39;76.76;100973.36;1835086;78;21031;-61
2021/08/09 05:03:41;;;;;;;22.17;11.88;;;;;;;23.44;76.68;100965.73;1835056;78;21549;-60
2021/08/09 05:06:14;;;;;;;15.78;10.60;;;;;;;23.52;76.65;100973.10;1834461;78;21054;-61
2021/08/09 05:08:45;;;;;;;17.37;11.15;;;;;;;23.61;76.60;100968.71;1835097;78;21078;-61
2021/08/09 05:11:13;;;;;;;20.25;11.70;;;;;;;23.67;76.48;100966.83;1835075;78;21513;-60
2021/08/09 05:13:43;;;;;;;19.52;11.70;;;;;;;23.74;76.29;100971.13;1835224;78;21548;-60
2021/08/09 05:16:11;;;;;;;18.48;12.07;;;;;;;23.80;76.15;100968.78;1835153;77;21083;-62
2021/08/09 05:18:40;;;;;;;19.23;11.03;;;;;;;23.88;76.10;100974.32;1835192;78;21126;-60
2021/08/09 05:21:09;;;;;;;24.30;11.85;;;;;;;23.98;75.96;100973.47;1835141;78;21128;-61
2021/08/09 05:23:38;;;;;;;15.75;11.00;;;;;;;24.03;75.76;100976.56;1835180;78;21059;-61
2021/08/09 05:26:06;;;;;;;15.80;11.25;;;;;;;24.11;75.60;100968.65;1835076;78;21070;-61
2021/08/09 05:28:35;;;;;;;16.17;11.78;;;;;;;24.23;75.43;100978.24;1835165;78;21161;-60
2021/08/09 05:31:04;;;;;;;20.82;12.50;;;;;;;24.31;75.26;100980.25;1834979;78;21120;-61
2021/08/09 05:33:32;;;;;;;22.70;12.03;;;;;;;24.42;75.22;100985.94;1835141;78;21126;-61
2021/08/09 05:36:02;;;;;;;20.55;11.73;;;;;;;24.53;75.15;100989.00;1835086;78;21102;-61
2021/08/09 05:38:30;;;;;;;24.02;11.38;;;;;;;24.61;74.94;100991.33;1835045;78;21054;-61
2021/08/09 05:40:59;;;;;;;19.37;11.78;;;;;;;24.65;74.69;100986.51;1835154;78;21050;-61
2021/08/09 05:43:28;;;;;;;20.00;11.57;;;;;;;24.62;74.34;100993.05;1834980;78;21050;-62
2021/08/09 05:45:58;;;;;;;22.42;11.30;;;;;;;24.60;74.40;100990.13;1835149;78;21094;-61
2021/08/09 05:48:27;;;;;;;23.10;11.28;;;;;;;24.60;74.37;100990.13;1835022;78;21564;-61
2021/08/09 05:50:56;;;;;;;18.45;11.30;;;;;;;24.56;74.23;100993.61;1835210;78;21027;-60
2021/08/09 05:53:27;;;;;;;19.00;11.00;;;;;;;24.53;74.20;100987.66;1835106;78;21173;-61
2021/08/09 05:55:56;;;;;;;18.48;11.00;;;;;;;24.46;74.05;100994.94;1834959;77;21042;-62
2021/08/09 05:58:25;;;;;;;16.12;10.88;;;;;;;24.43;74.02;100994.38;1835163;78;21030;-61
2021/08/09 06:00:54;;;;;;;16.32;11.10;;;;;;;24.43;74.01;100999.77;1835048;78;21030;-61
2021/08/09 06:03:23;;;;;;;22.05;11.40;;;;;;;24.43;73.95;101006.49;1835073;78;21121;-61
2021/08/09 06:05:54;;;;;;;15.90;11.40;;;;;;;24.43;73.95;101008.67;1833848;78;21113;-61
2021/08/09 06:08:24;;;;;;;17.55;10.18;;;;;;;24.47;73.91;101006.55;1834496;78;21163;-61
2021/08/09 06:10:53;;;;;;;19.57;11.20;;;;;;;24.52;73.80;101008.83;1835142;78;21150;-61
2021/08/09 06:13:22;;;;;;;24.40;12.03;;;;;;;24.51;73.67;101009.80;1835084;78;21078;-60
2021/08/09 06:15:51;;;;;;;15.93;10.53;;;;;;;24.50;73.68;101013.00;1835078;78;21031;-60
2021/08/09 06:18:21;;;;;;;18.30;10.60;;;;;;;24.52;73.71;101015.08;1834757;78;21054;-60
2021/08/09 06:20:50;;;;;;;19.15;10.30;;;;;;;24.51;73.61;101020.06;1835216;78;21058;-62
2021/08/09 06:23:19;;;;;;;22.20;12.13;;;;;;;24.50;73.52;101022.42;1834982;78;21093;-60
2021/08/09 06:25:48;;;;;;;17.05;11.12;;;;;;;24.44;73.69;101021.16;1835187;78;21062;-60
2021/08/09 06:28:17;;;;;;;21.62;11.53;;;;;;;24.39;73.83;101026.62;1835144;78;21070;-60
2021/08/09 06:30:46;;;;;;;16.35;11.50;;;;;;;24.31;73.99;101034.06;1835125;78;21567;-60
2021/08/09 06:33:17;;;;;;;17.90;11.70;;;;;;;24.27;74.17;101036.66;1834350;78;21066;-60
2021/08/09 06:35:46;;;;;;;19.85;11.43;;;;;;;24.24;74.36;101036.45;1834967;78;21227;-60
2021/08/09 06:38:16;;;;;;;19.00;10.98;;;;;;;24.26;74.55;101039.85;1835054;78;21075;-60
2021/08/09 06:40:45;;;;;;;17.98;11.70;;;;;;;24.27;74.69;101036.19;1835094;78;21058;-60
2021/08/09 06:43:16;;;;;;;21.07;12.47;;;;;;;24.30;74.76;101036.89;1881239;76;21089;-60
2021/08/09 06:45:49;;;;;;;22.50;11.70;;;;;;;24.30;74.78;101042.27;1889113;76;21057;-60
2021/08/09 06:48:19;;;;;;;19.95;11.65;;;;;;;24.31;74.76;101033.19;1889707;76;21566;-60
2021/08/09 06:50:48;;;;;;;18.42;11.53;;;;;;;24.28;74.78;101027.11;1889792;76;21034;-60
2021/08/09 06:53:18;;;;;;;21.45;12.00;;;;;;;24.28;74.79;101024.41;1889861;76;21030;-60
2021/08/09 06:55:48;;;;;;;21.40;12.80;;;;;;;24.27;74.84;101028.11;1889751;76;21113;-60
2021/08/09 06:58:18;;;;;;;21.40;12.43;;;;;;;24.27;74.89;101029.46;1889641;76;21131;-60
2021/08/09 07:00:48;;;;;;;20.50;12.07;;;;;;;24.28;74.97;101027.11;1889668;76;21423;-60
2021/08/09 07:03:17;;;;;;;19.52;11.85;;;;;;;24.29;74.92;101022.59;1889835;76;21489;-60
2021/08/09 07:05:47;;;;;;;22.67;12.98;;;;;;;24.31;74.79;101021.08;1889874;76;21475;-60
2021/08/09 07:08:18;;;;;;;21.95;12.90;;;;;;;24.36;74.75;101020.16;1888767;76;21519;-60
2021/08/09 07:10:50;;;;;;;18.65;11.93;;;;;;;24.40;74.80;101014.38;1857716;76;21050;-60
2021/08/09 07:13:20;;;;;;;15.75;12.18;;;;;;;24.45;74.53;101013.92;1889826;76;21191;-60
2021/08/09 07:15:49;;;;;;;19.37;12.80;;;;;;;24.57;74.22;101022.23;1889750;76;21037;-60
2021/08/09 07:18:19;;;;;;;20.55;12.70;;;;;;;24.70;73.96;101019.70;1889762;76;21512;-60
2021/08/09 07:20:48;;;;;;;23.15;12.50;;;;;;;24.84;73.77;101027.33;1889876;76;21077;-60
2021/08/09 07:23:17;;;;;;;18.77;12.47;;;;;;;24.98;73.58;101022.83;1889727;76;21010;-60
2021/08/09 07:25:47;;;;;;;17.37;12.40;;;;;;;25.15;73.28;101016.32;1889785;76;21413;-61
2021/08/09 07:28:16;;;;;;;18.48;12.47;;;;;;;25.30;72.93;101011.31;1889911;76;21115;-60
2021/08/09 07:30:44;;;;;;;19.45;11.30;;;;;;;25.48;72.44;101008.68;1889699;76;21058;-60
2021/08/09 07:33:13;;;;;;;16.80;11.08;;;;;;;25.67;72.03;101011.23;1889734;76;21038;-60
2021/08/09 07:35:42;;;;;;;15.65;10.78;;;;;;;25.83;71.47;101009.73;1889709;76;21034;-60
2021/08/09 07:38:12;;;;;;;15.53;10.03;;;;;;;25.96;70.84;101008.38;1889635;76;21038;-60
2021/08/09 07:40:41;;;;;;;19.35;12.80;;;;;;;26.07;69.81;100997.85;1889810;76;21101;-60
2021/08/09 07:43:09;;;;;;;21.02;11.60;;;;;;;26.26;69.46;101000.03;1882647;76;21132;-60
2021/08/09 07:45:39;;;;;;;14.10;11.08;;;;;;;26.44;68.91;100994.11;1877857;76;21078;-60
2021/08/09 07:48:07;;;;;;;15.05;10.13;;;;;;;26.70;68.33;100989.25;1878063;76;21429;-60
2021/08/09 07:50:39;;;;;;;17.27;10.63;;;;;;;27.07;67.51;100991.64;1877478;76;21638;-60
2021/08/09 07:53:10;;;;;;;18.73;9.38;;;;;;;27.57;67.08;100986.45;1877799;76;21086;-60
2021/08/09 07:55:39;;;;;;;18.98;10.08;;;;;;;28.03;66.20;100987.73;1877862;76;21509;-60
2021/08/09 07:58:08;;;;;;;14.20;10.00;;;;;;;28.30;64.99;100981.14;1877842;76;21497;-60
2021/08/09 08:00:39;;;;;;;18.10;10.15;;;;;;;28.39;64.45;100983.86;1877864;76;21058;-61
2021/08/09 08:03:09;;;;;;;17.67;10.43;;;;;;;28.48;63.64;100984.19;1877855;76;21077;-60
2021/08/09 08:05:39;;;;;;;16.12;9.20;;;;;;;28.71;63.24;100988.39;1877713;76;21098;-60
2021/08/09 08:08:11;;;;;;;15.35;9.35;;;;;;;28.98;61.99;100988.48;1877811;76;21527;-60
2021/08/09 08:10:39;;;;;;;13.80;8.23;;;;;;;29.31;60.98;100991.11;1877886;76;21046;-60
2021/08/09 08:13:08;;;;;;;14.95;8.40;;;;;;;29.61;59.57;101001.61;1877977;76;21469;-60
2021/08/09 08:15:37;;;;;;;20.15;10.65;;;;;;;29.86;58.54;101001.47;1877745;76;21458;-60
2021/08/09 08:18:08;;;;;;;14.10;8.68;;;;;;;30.29;58.14;101005.91;1877793;76;21176;-60
2021/08/09 08:20:37;;;;;;;16.87;7.90;;;;;;;30.70;56.97;101005.55;1877914;76;21517;-60
2021/08/09 08:23:06;;;;;;;12.10;8.33;;;;;;;31.20;54.89;101000.94;1877890;76;21578;-60
2021/08/09 08:25:36;;;;;;;13.60;7.30;;;;;;;31.77;54.52;101000.17;1877916;76;21022;-60
2021/08/09 08:28:05;;;;;;;11.55;7.62;;;;;;;32.38;52.91;100998.88;1877732;76;21492;-62
2021/08/09 08:30:34;;;;;;;12.65;6.80;;;;;;;32.92;50.86;100992.77;1877782;76;21473;-60
2021/08/09 08:33:04;;;;;;;13.62;6.80;;;;;;;33.17;50.36;100990.41;1877452;76;21090;-60
2021/08/09 08:35:33;;;;;;;10.88;6.25;;;;;;;32.76;49.95;100990.36;1877848;76;21413;-60
2021/08/09 08:38:03;;;;;;;11.00;6.35;;;;;;;31.93;50.11;100978.14;1877786;76;21046;-60
2021/08/09 08:40:33;;;;;;;15.03;6.78;;;;;;;31.25;51.04;100983.02;1877703;76;21604;-60
2021/08/09 08:43:02;;;;;;;13.78;7.22;;;;;;;30.65;51.54;100985.39;1879369;76;21153;-60
2021/08/09 08:45:32;;;;;;;15.83;7.70;;;;;;;30.31;52.17;100983.48;1884261;76;21066;-60
2021/08/09 08:48:04;;;;;;;11.77;6.97;;;;;;;30.10;52.85;100987.39;1884424;75;21094;-60
2021/08/09 08:50:33;;;;;;;11.03;7.30;;;;;;;29.77;53.16;100993.05;1884278;76;21509;-59
2021/08/09 08:53:02;;;;;;;11.57;7.33;;;;;;;29.52;53.53;100986.41;1884324;76;21077;-60
2021/08/09 08:55:31;;;;;;;12.28;7.47;;;;;;;29.31;53.80;100986.17;1884097;76;21163;-60
2021/08/09 08:57:59;;;;;;;11.93;7.05;;;;;;;29.22;54.26;100984.03;1884219;76;21119;-60
2021/08/09 09:00:39;;;;;;;13.70;7.28;;;;;;;29.22;54.20;100983.51;1884181;76;21010;-60
2021/08/09 09:03:25;;;;;;;14.18;6.92;;;;;;;29.25;54.06;100988.59;1884239;76;21132;-60
2021/08/09 09:06:05;;;;;;;10.98;6.90;;;;;;;29.37;53.94;100988.20;1884168;76;21112;-60
2021/08/09 09:08:42;;;;;;;11.22;6.28;;;;;;;29.61;53.60;100990.76;1884243;76;21469;-60
2021/08/09 09:11:14;;;;;;;10.98;7.30;;;;;;;29.82;53.29;100984.73;1884251;76;21124;-60
2021/08/09 09:14:00;;;;;;;10.50;6.78;;;;;;;29.97;53.71;100981.21;1881160;76;21097;-60
2021/08/09 09:16:34;;;;;;;12.90;7.20;;;;;;;30.18;53.31;100979.19;1884255;76;21022;-60
2021/08/09 09:19:03;;;;;;;11.10;7.00;;;;;;;30.50;53.45;100967.72;1876486;76;21128;-60
2021/08/09 09:21:36;;;;;;;11.08;6.60;;;;;;;30.92;52.28;100966.27;1884255;76;21571;-60
2021/08/09 09:24:11;;;;;;;14.95;6.33;;;;;;;31.42;51.37;100961.86;1884231;76;21569;-60
2021/08/09 09:26:41;;;;;;;10.38;6.22;;;;;;;31.63;50.12;100957.51;1883735;76;21195;-60
2021/08/09 09:29:12;;;;;;;11.12;6.95;;;;;;;31.74;48.61;100951.05;1884321;76;21137;-60
2021/08/09 09:31:42;;;;;;;7.53;6.55;;;;;;;31.87;49.38;100957.15;1882662;76;21018;-60
2021/08/09 09:34:14;;;;;;;9.20;5.83;;;;;;;32.53;48.38;100947.00;1884246;76;21042;-60
2021/08/09 09:36:48;;;;;;;12.55;6.87;;;;;;;32.94;46.00;100951.13;1883071;76;21166;-60
2021/08/09 09:39:40;;;;;;;7.42;5.87;;;;;;;32.57;45.93;100953.20;1884218;76;21070;-60
2021/08/09 09:42:12;;;;;;;10.72;6.60;;;;;;;32.39;46.50;100948.77;1884327;76;21034;-60
2021/08/09 09:44:42;;;;;;;10.80;6.23;;;;;;;32.34;46.90;100949.39;1883473;76;21168;-60
2021/08/09 09:47:25;;;;;;;14.50;6.28;;;;;;;32.69;46.83;100955.72;1884211;76;21010;-60
2021/08/09 09:49:59;;;;;;;8.95;6.28;;;;;;;32.79;46.90;100954.52;1873081;75;21112;-60
2021/08/09 09:52:45;;;;;;;9.33;6.53;;;;;;;32.50;46.44;100957.79;1884229;76;21560;-60
2021/08/09 09:55:13;;;;;;;10.55;6.45;;;;;;;32.46;46.48;100951.03;1884004;76;21054;-60
2021/08/09 09:57:44;;;;;;;8.35;5.83;;;;;;;32.87;46.08;100958.46;1884057;76;21026;-61
2021/08/09 10:00:14;;;;;;;7.55;6.35;;;;;;;32.83;45.50;100955.80;1884202;76;21026;-60
2021/08/09 10:02:46;;;;;;;10.05;6.60;;;;;;;32.73;46.12;100956.70;1884162;76;21145;-60
2021/08/09 10:05:15;;;;;;;9.20;5.92;;;;;;;32.85;46.77;100945.52;1883533;76;21034;-60
2021/08/09 10:07:47;;;;;;;10.88;6.40;;;;;;;33.34;46.61;100945.03;1884223;76;21534;-60
2021/08/09 10:10:17;;;;;;;10.75;5.60;;;;;;;33.65;45.89;100946.70;1884225;76;21495;-60
2021/08/09 10:12:47;;;;;;;9.03;5.97;;;;;;;33.89;44.79;100944.97;1884147;76;21436;-60
2021/08/09 10:15:19;;;;;;;8.85;6.00;;;;;;;33.75;44.04;100945.46;1884408;76;21090;-60
2021/08/09 10:17:50;;;;;;;8.67;6.37;;;;;;;33.13;45.00;100932.38;1884493;76;21425;-60
2021/08/09 10:20:20;;;;;;;10.75;6.08;;;;;;;33.13;45.00;100932.38;1884415;76;21022;-60
2021/08/09 10:23:00;;;;;;;9.43;6.67;;;;;;;32.89;45.61;100935.92;1884128;76;21050;-60
2021/08/09 10:25:54;;;;;;;12.20;5.97;;;;;;;32.63;46.13;100944.27;1884209;76;21065;-60
2021/08/09 10:28:20;;;;;;;11.85;6.72;;;;;;;32.44;46.26;100945.77;1883705;75;21566;-60
2021/08/09 10:30:49;;;;;;;12.13;6.53;;;;;;;32.39;46.89;100940.60;1884196;76;21116;-60
2021/08/09 10:33:20;;;;;;;11.43;8.00;;;;;;;32.32;46.58;100949.58;1884125;76;21164;-60
2021/08/09 10:35:53;;;;;;;15.70;7.60;;;;;;;32.22;46.20;100946.38;1877786;76;21058;-60
2021/08/09 10:38:24;;;;;;;11.68;8.23;;;;;;;32.12;46.98;100946.70;1884203;76;21100;-60
2021/08/09 10:41:08;;;;;;;16.73;8.00;;;;;;;32.13;46.52;100953.84;1884180;76;21058;-60
2021/08/09 10:43:41;;;;;;;13.48;6.58;;;;;;;32.12;47.16;100955.39;1884103;76;21566;-60
2021/08/09 10:46:43;;;;;;;16.02;8.35;;;;;;;32.28;46.92;100958.36;1884350;75;21164;-59
2021/08/09 10:49:36;;;;;;;11.20;7.62;;;;;;;32.29;46.49;100954.58;1884130;75;21153;-59
2021/08/09 10:52:06;;;;;;;13.83;7.72;;;;;;;32.39;46.26;100951.50;1881341;76;21504;-59
2021/08/09 10:54:36;;;;;;;8.40;6.60;;;;;;;32.31;45.73;100955.22;1884196;76;21362;-59
2021/08/09 10:57:06;;;;;;;9.58;6.40;;;;;;;32.23;45.56;100956.22;1884292;76;21054;-59
2021/08/09 10:59:43;;;;;;;11.57;7.28;;;;;;;32.12;45.84;100956.75;1884208;76;21046;-59
2021/08/09 11:02:22;;;;;;;9.98;7.40;;;;;;;32.04;46.39;100955.52;1884201;76;21459;-59
2021/08/09 11:05:19;;;;;;;11.80;7.40;;;;;;;31.91;46.30;100952.98;1884319;76;21062;-59
2021/08/09 11:07:49;;;;;;;14.00;7.55;;;;;;;31.81;46.77;100952.46;1884232;76;21026;-59
2021/08/09 11:10:37;;;;;;;10.93;7.67;;;;;;;31.85;47.04;100955.11;1884128;76;21006;-59
2021/08/09 11:13:06;;;;;;;13.95;7.15;;;;;;;31.76;47.16;100953.55;1884241;75;21087;-59
2021/08/09 11:15:37;;;;;;;12.65;7.72;;;;;;;31.60;47.16;100957.92;1884238;76;21112;-59
2021/08/09 11:18:06;;;;;;;10.55;6.80;;;;;;;31.51;47.22;100960.74;1879109;76;21504;-59
2021/08/09 11:20:35;;;;;;;13.70;6.45;;;;;;;31.39;47.08;100959.52;1884319;76;21120;-59
2021/08/09 11:23:11;;;;;;;10.88;6.90;;;;;;;31.28;47.36;100958.66;1883836;76;21106;-60
2021/08/09 11:25:48;;;;;;;10.98;6.80;;;;;;;31.18;47.57;100948.09;1884410;76;21096;-59
2021/08/09 11:28:25;;;;;;;9.33;6.85;;;;;;;31.12;47.58;100953.77;1884298;76;21593;-59
2021/08/09 11:31:05;;;;;;;10.48;5.83;;;;;;;31.09;47.75;100945.98;1884331;76;21046;-59